createdAt,value
2023-01-29T00:09:36.483Z,-2.10
2023-01-29T00:19:38.510Z,-2.10
2023-01-29T00:29:40.351Z,-2.10
2023-01-29T00:39:48.227Z,-2.30
2023-01-29T00:49:50.211Z,-2.20
2023-01-29T00:59:53.747Z,-2.40
2023-01-29T01:09:55.648Z,-2.50
2023-01-29T01:19:57.580Z,-2.40
2023-01-29T01:30:02.419Z,-2.50
2023-01-29T01:40:17.135Z,-2.40
2023-01-29T01:50:24.316Z,-2.50
2023-01-29T02:00:26.882Z,-2.50
2023-01-29T02:10:35.209Z,-2.50
2023-01-29T02:20:40.777Z,-2.40
2023-01-29T02:31:11.746Z,-2.50
2023-01-29T02:41:36.218Z,-2.40
2023-01-29T02:51:49.834Z,-2.50
2023-01-29T03:02:07.717Z,-2.40
2023-01-29T03:12:22.131Z,-2.40
2023-01-29T03:22:24.845Z,-2.50
2023-01-29T03:32:30.086Z,-2.50
2023-01-29T03:43:12.341Z,-2.40
2023-01-29T03:53:36.881Z,-2.40
2023-01-29T04:03:44.759Z,-2.20
2023-01-29T04:13:47.818Z,-2.10
2023-01-29T04:23:52.658Z,-2.00
2023-01-29T04:34:21.783Z,-2.00
2023-01-29T04:44:55.243Z,-2.20
2023-01-29T04:55:11.965Z,-2.00
2023-01-29T05:05:16.220Z,-2.10
2023-01-29T05:15:23.989Z,-1.90
2023-01-29T05:25:28.998Z,-2.00
2023-01-29T05:35:31.014Z,-1.90
2023-01-29T05:45:34.221Z,-2.00
2023-01-29T05:55:36.121Z,-1.90
2023-01-29T06:05:38.872Z,-1.80
2023-01-29T06:15:41.815Z,-1.90
2023-01-29T06:25:43.697Z,-1.90
2023-01-29T06:35:45.634Z,-1.80
2023-01-29T06:45:52.809Z,-1.90
2023-01-29T06:55:54.709Z,-2.00
2023-01-29T07:05:56.568Z,-2.10
2023-01-29T07:16:03.493Z,-2.00
2023-01-29T07:26:06.436Z,-2.40
2023-01-29T07:36:09.846Z,-2.20
2023-01-29T07:46:12.117Z,-2.10
2023-01-29T07:56:14.006Z,-2.10
2023-01-29T08:17:57.235Z,-1.90
2023-01-29T08:28:00.618Z,-1.90
2023-01-29T08:38:04.330Z,-1.70
2023-01-29T08:48:06.604Z,-1.60
2023-01-29T08:58:11.489Z,-1.60
2023-01-29T09:08:14.398Z,-1.40
2023-01-29T09:18:18.855Z,-1.20
2023-01-29T09:28:20.693Z,-1.20
2023-01-29T09:38:22.556Z,-0.90
2023-01-29T09:48:35.673Z,-1.00
2023-01-29T09:58:40.069Z,-0.60
2023-01-29T10:08:59.977Z,-0.90
2023-01-29T10:19:28.535Z,-0.80
2023-01-29T10:29:32.001Z,-1.00
2023-01-29T10:39:34.385Z,-0.80
2023-01-29T10:50:14.445Z,-0.60
2023-01-29T11:00:26.226Z,-0.60
2023-01-29T11:10:29.093Z,-0.80
2023-01-29T11:20:32.643Z,-0.70
2023-01-29T11:30:40.125Z,-0.50
2023-01-29T11:40:42.379Z,-0.70
2023-01-29T11:50:50.916Z,-0.40
2023-01-29T12:00:55.086Z,0.00
2023-01-29T12:11:15.729Z,0.20
2023-01-29T12:21:55.421Z,0.20
2023-01-29T12:32:23.010Z,0.00
2023-01-29T12:42:32.309Z,-0.30
2023-01-29T12:52:36.883Z,0.20
2023-01-29T13:03:00.688Z,0.10
2023-01-29T13:13:07.504Z,0.00
2023-01-29T13:23:39.659Z,0.10
2023-01-29T13:33:42.957Z,0.00
2023-01-29T13:43:50.282Z,0.10
2023-01-29T13:54:00.154Z,0.20
2023-01-29T14:04:26.778Z,0.00
2023-01-29T14:14:47.657Z,-0.10
2023-01-29T14:24:54.089Z,0.00
2023-01-29T14:35:33.049Z,0.00
2023-01-29T14:45:43.715Z,0.00
2023-01-29T14:56:15.496Z,-0.20
2023-01-29T15:06:47.182Z,-0.30
2023-01-29T15:17:06.172Z,-0.50
2023-01-29T15:27:23.538Z,-0.60
2023-01-29T15:38:20.506Z,0.90
2023-01-29T15:48:31.956Z,-0.60
2023-01-29T15:58:35.159Z,-0.70
2023-01-29T16:08:39.218Z,-0.80
2023-01-29T16:19:00.950Z,-1.00
2023-01-29T16:29:09.589Z,-1.10
2023-01-29T16:39:22.938Z,-1.30
2023-01-29T16:49:33.966Z,-1.30
2023-01-29T16:59:39.639Z,-1.40
2023-01-29T17:09:42.815Z,-1.50
2023-01-29T17:19:46.899Z,-1.40
2023-01-29T17:29:53.906Z,-1.40
2023-01-29T17:39:58.915Z,-1.30
2023-01-29T17:50:02.327Z,-1.30
2023-01-29T18:00:14.275Z,-1.30
2023-01-29T18:10:21.118Z,-1.40
2023-01-29T18:20:24.536Z,-1.40
2023-01-29T18:30:52.031Z,-1.30
2023-01-29T18:41:10.375Z,-1.40
2023-01-29T18:51:38.504Z,-1.30
2023-01-29T19:02:01.785Z,-1.40
2023-01-29T19:12:04.508Z,-1.40
2023-01-29T19:22:07.627Z,-1.50
2023-01-29T19:32:09.378Z,-1.50
2023-01-29T19:42:11.257Z,-1.50
2023-01-29T19:52:13.192Z,-1.50
2023-01-29T20:02:15.154Z,-1.50
2023-01-29T20:12:17.268Z,-1.60
2023-01-29T20:22:19.092Z,-1.60
2023-01-29T20:32:21.107Z,-1.60
2023-01-29T20:42:24.561Z,-1.60
2023-01-29T20:52:27.769Z,-1.60
2023-01-29T21:02:33.224Z,-1.70
2023-01-29T21:12:35.627Z,-1.60
2023-01-29T21:22:37.508Z,-1.80
2023-01-29T21:32:39.514Z,-1.80
2023-01-29T21:42:41.834Z,-1.90
2023-01-29T21:52:44.169Z,-2.00
2023-01-29T22:14:15.080Z,-2.10
2023-01-29T22:24:16.982Z,-2.10
2023-01-29T22:45:06.352Z,-2.00
2023-01-29T22:55:56.894Z,-2.20
